CYDF

Deer Lake Regional Airport

Airport
ICAO code
CYDF
IATA Code
YDF
Summary
ICAO Region
NAM
ICAO Territory
Location

Deer Lake, Newfoundland,

Serving
Deer Lake
Elevation
72 ft
Coordinates
49° 12' 35" N , 57° 23' 34" W
KCC
Airport BS
Bird Strike
Airport CFIT
Altimeter Temperature Error Correction
Airport RE
Crosswind Landings
Airport WX
Low Level Turbulence
Metar
Observation
CYDF 280400Z 24003KT 15SM OVC018 02/02 A2952 RMK SC8 SLP000
Station
Deer Lake, Nfld.
Date/Time
2022-11-28 04:00:00
Wind direction
240°
Wind speed
03 kts
Lowest cloud amount
overcast
Temperature
2°C
Dew point
2°C
Humidity
100%
Weather condition
n/a

Description

Regional airport serving Deer Lake, Newfoundland.

Climatology

Humid Continental climate (Köppen climate classification Dfb) - Variable weather patterns and a large seasonal temperature variance. Summers are often warm and humid with frequent thunderstorms and winters can be very cold with frequent snowfall and persistent snow cover.

The separate article climate Newfoundland contains more detail on the climate of Newfoundland and associated weather phenomena.

Runways

Designator Length Width Surface Rops
7/25 1829 46 ASP No/No

Airport map

Aerial View

SKYbrary Partners:

Safety knowledge contributed by: